createdAt,value
2018-02-03T00:01:44.195Z,97515
2018-02-03T00:04:11.765Z,97517
2018-02-03T00:06:40.140Z,97515
2018-02-03T00:09:07.766Z,97522
2018-02-03T00:11:35.334Z,97519
2018-02-03T00:14:02.934Z,97532
2018-02-03T00:16:31.391Z,97524
2018-02-03T00:18:58.976Z,97533
2018-02-03T00:21:26.665Z,97521
2018-02-03T00:23:55.006Z,97505
2018-02-03T00:26:23.926Z,97516
2018-02-03T00:28:51.810Z,97518
2018-02-03T00:31:20.175Z,97511
2018-02-03T00:33:48.548Z,97505
2018-02-03T00:36:16.905Z,97509
2018-02-03T00:38:44.600Z,97509
2018-02-03T00:41:12.252Z,97504
2018-02-03T00:43:39.918Z,97516
2018-02-03T00:46:07.494Z,97518
2018-02-03T00:48:35.837Z,97509
2018-02-03T00:51:03.540Z,97514
2018-02-03T00:53:31.909Z,97512
2018-02-03T00:56:00.256Z,97501
2018-02-03T00:58:28.014Z,97495
2018-02-03T01:00:55.588Z,97509
2018-02-03T01:03:24.049Z,97520
2018-02-03T01:05:52.382Z,97516
2018-02-03T01:08:20.015Z,97523
2018-02-03T01:10:48.361Z,97515
2018-02-03T01:13:16.011Z,97524
2018-02-03T01:15:43.604Z,97522
2018-02-03T01:18:11.248Z,97517
2018-02-03T01:20:38.975Z,97512
2018-02-03T01:23:06.662Z,97511
2018-02-03T01:25:35.028Z,97517
2018-02-03T01:28:02.678Z,97513
2018-02-03T01:30:31.016Z,97513
2018-02-03T01:32:58.625Z,97516
2018-02-03T01:35:26.271Z,97509
2018-02-03T01:37:54.641Z,97505
2018-02-03T01:40:23.306Z,97511
2018-02-03T01:42:50.877Z,97498
2018-02-03T01:45:19.428Z,97502
2018-02-03T01:47:52.931Z,97500
2018-02-03T01:50:20.492Z,97516
2018-02-03T01:52:48.883Z,97510
2018-02-03T01:55:16.457Z,97492
2018-02-03T01:57:44.043Z,97497
2018-02-03T02:00:11.709Z,97483
2018-02-03T02:02:40.080Z,97500
2018-02-03T02:05:08.466Z,97501
2018-02-03T02:07:36.824Z,97491
2018-02-03T02:10:04.400Z,97488
2018-02-03T02:12:32.812Z,97488
2018-02-03T02:15:00.381Z,97495
2018-02-03T02:17:27.953Z,97491
2018-02-03T02:19:55.582Z,97495
2018-02-03T02:22:23.408Z,97487
2018-02-03T02:24:51.621Z,97487
2018-02-03T02:27:19.951Z,97495
2018-02-03T02:29:47.529Z,97486
2018-02-03T02:32:19.376Z,97495
2018-02-03T02:34:46.959Z,97486
2018-02-03T02:37:14.737Z,97485
2018-02-03T02:39:42.347Z,97485
2018-02-03T02:42:09.920Z,97488
2018-02-03T02:44:37.569Z,97480
2018-02-03T02:47:05.203Z,97491
2018-02-03T02:49:32.938Z,97481
2018-02-03T02:52:00.696Z,97475
2018-02-03T02:54:28.275Z,97473
2018-02-03T02:56:56.636Z,97466
2018-02-03T02:59:24.323Z,97482
2018-02-03T03:01:52.670Z,97462
2018-02-03T03:04:20.243Z,97471
2018-02-03T03:06:48.639Z,97466
2018-02-03T03:09:16.973Z,97465
2018-02-03T03:11:44.897Z,97468
2018-02-03T03:14:13.454Z,97460
2018-02-03T03:16:41.844Z,97457
2018-02-03T03:19:09.536Z,97460
2018-02-03T03:21:37.122Z,97447
2018-02-03T03:24:05.496Z,97454
2018-02-03T03:26:33.083Z,97458
2018-02-03T03:29:00.653Z,97451
2018-02-03T03:31:28.278Z,97461
2018-02-03T03:33:56.677Z,97464
2018-02-03T03:36:25.020Z,97459
2018-02-03T03:38:52.660Z,97454
2018-02-03T03:41:20.277Z,97450
2018-02-03T03:43:48.527Z,97449
2018-02-03T03:46:16.162Z,97445
2018-02-03T03:48:43.726Z,97447
2018-02-03T03:51:11.336Z,97441
2018-02-03T03:53:38.912Z,97444
2018-02-03T03:56:07.250Z,97448
2018-02-03T03:58:34.853Z,97435
2018-02-03T04:01:03.367Z,97437
2018-02-03T04:03:30.932Z,97441
2018-02-03T04:05:58.486Z,97438
2018-02-03T04:08:26.088Z,97434
2018-02-03T04:10:53.670Z,97427
2018-02-03T04:13:21.255Z,97432
2018-02-03T04:15:48.946Z,97422
2018-02-03T04:18:17.661Z,97432
2018-02-03T04:20:45.237Z,97425
2018-02-03T04:23:12.818Z,97435
2018-02-03T04:25:40.381Z,97424
2018-02-03T04:28:08.714Z,97421
2018-02-03T04:30:36.283Z,97429
2018-02-03T04:33:03.870Z,97434
2018-02-03T04:35:31.475Z,97444
2018-02-03T04:37:59.044Z,97447
2018-02-03T04:40:26.689Z,97438
2018-02-03T04:42:54.246Z,97441
2018-02-03T04:45:21.826Z,97449
2018-02-03T04:47:49.403Z,97448
2018-02-03T04:50:17.021Z,97448
2018-02-03T04:52:44.603Z,97441
2018-02-03T04:55:12.236Z,97436
2018-02-03T04:57:40.561Z,97432
2018-02-03T05:00:08.143Z,97435
2018-02-03T05:02:35.704Z,97441
2018-02-03T05:05:03.288Z,97438
2018-02-03T05:07:31.623Z,97436
2018-02-03T05:09:59.206Z,97438
2018-02-03T05:12:26.762Z,97430
2018-02-03T05:14:55.099Z,97426
2018-02-03T05:17:22.721Z,97431
2018-02-03T05:19:50.303Z,97430
2018-02-03T05:22:18.675Z,97424
2018-02-03T05:24:46.754Z,97417
2018-02-03T05:27:14.327Z,97431
2018-02-03T05:29:41.925Z,97424
2018-02-03T05:32:09.504Z,97419
2018-02-03T05:34:37.104Z,97412
2018-02-03T05:37:04.662Z,97427
2018-02-03T05:39:32.254Z,97419
2018-02-03T05:41:59.816Z,97421
2018-02-03T05:44:27.977Z,97431
2018-02-03T05:46:55.584Z,97430
2018-02-03T05:49:23.136Z,97438
2018-02-03T05:51:50.721Z,97445
2018-02-03T05:54:18.296Z,97436
2018-02-03T05:56:46.276Z,97442
2018-02-03T05:59:13.850Z,97449
2018-02-03T06:01:42.197Z,97452
2018-02-03T06:04:09.770Z,97456
2018-02-03T06:06:37.374Z,97451
2018-02-03T06:09:04.966Z,97454
2018-02-03T06:11:32.567Z,97451
2018-02-03T06:14:00.149Z,97463
2018-02-03T06:16:27.746Z,97459
2018-02-03T06:18:55.371Z,97451
2018-02-03T06:21:22.969Z,97458
2018-02-03T06:23:50.597Z,97458
2018-02-03T06:26:18.198Z,97570
2018-02-03T06:28:47.210Z,97459
2018-02-03T06:31:14.799Z,97456
2018-02-03T06:33:42.372Z,97462
2018-02-03T06:36:09.987Z,97459
2018-02-03T06:38:37.582Z,97459
2018-02-03T06:41:05.159Z,97458
2018-02-03T06:43:33.491Z,97465
2018-02-03T06:46:01.062Z,97458
2018-02-03T06:48:28.652Z,97467
2018-02-03T06:50:56.216Z,97469
2018-02-03T06:53:24.553Z,97471
2018-02-03T06:55:52.115Z,97479
2018-02-03T06:58:19.686Z,97475
2018-02-03T07:00:48.306Z,97471
2018-02-03T07:03:16.208Z,97471
2018-02-03T07:05:43.765Z,97463
2018-02-03T07:08:12.123Z,97467
2018-02-03T07:10:39.696Z,97469
2018-02-03T07:13:07.265Z,97471
2018-02-03T07:15:35.596Z,97466
2018-02-03T07:18:03.153Z,97467
2018-02-03T07:20:30.729Z,97464
2018-02-03T07:22:58.290Z,97450
2018-02-03T07:25:25.860Z,97460
2018-02-03T07:27:53.415Z,97465
2018-02-03T07:30:20.981Z,97453
2018-02-03T07:32:48.535Z,97449
2018-02-03T07:35:17.437Z,97449
2018-02-03T07:37:45.003Z,97459
2018-02-03T07:40:12.609Z,97460
2018-02-03T07:42:40.183Z,97456
2018-02-03T07:45:07.749Z,97455
2018-02-03T07:47:35.318Z,97453
2018-02-03T07:50:02.888Z,97447
2018-02-03T07:52:30.472Z,97433
2018-02-03T07:54:58.669Z,97441
2018-02-03T07:57:26.237Z,97434
2018-02-03T07:59:54.575Z,97424
2018-02-03T08:02:22.184Z,97418
2018-02-03T08:04:49.748Z,97425
2018-02-03T08:07:17.985Z,97428
2018-02-03T08:09:46.921Z,97423
2018-02-03T08:12:15.263Z,97423
2018-02-03T08:14:42.827Z,97418
2018-02-03T08:17:10.389Z,97429
2018-02-03T08:19:38.712Z,97433
2018-02-03T08:22:07.045Z,97426
2018-02-03T08:24:34.611Z,97437
2018-02-03T08:27:02.164Z,97435
2018-02-03T08:29:29.717Z,97431
2018-02-03T08:31:57.330Z,97443
2018-02-03T08:34:24.867Z,97439
2018-02-03T08:36:53.201Z,97445
2018-02-03T08:39:20.765Z,97436
2018-02-03T08:41:48.951Z,97471
2018-02-03T08:44:17.050Z,97448
2018-02-03T08:46:44.636Z,97448
2018-02-03T08:49:12.227Z,97445
2018-02-03T08:51:40.423Z,97455
2018-02-03T08:54:07.987Z,97448
2018-02-03T08:56:35.706Z,97443
2018-02-03T08:59:03.307Z,97452
2018-02-03T09:01:30.887Z,97459
2018-02-03T09:03:58.513Z,97456
2018-02-03T09:06:26.901Z,97451
2018-02-03T09:08:54.473Z,97450
2018-02-03T09:11:22.045Z,97447
2018-02-03T09:13:49.614Z,97435
2018-02-03T09:16:17.782Z,97454
2018-02-03T09:18:45.440Z,97445
2018-02-03T09:21:13.814Z,97449
2018-02-03T09:23:41.460Z,97452
2018-02-03T09:26:09.081Z,97447
2018-02-03T09:28:36.780Z,97441
2018-02-03T09:31:04.354Z,97434
2018-02-03T09:33:31.919Z,97446
2018-02-03T09:35:59.490Z,97446
2018-02-03T09:38:27.105Z,97449
2018-02-03T09:40:54.842Z,97440
2018-02-03T09:43:22.480Z,97437
2018-02-03T09:45:50.946Z,97446
2018-02-03T09:48:19.297Z,97439
2018-02-03T09:50:47.464Z,97449
2018-02-03T09:53:15.028Z,97444
2018-02-03T09:55:43.517Z,97445
2018-02-03T09:58:11.854Z,97438
2018-02-03T10:00:39.414Z,97440
2018-02-03T10:03:07.024Z,97433
2018-02-03T10:05:36.118Z,97433
2018-02-03T10:08:03.688Z,97441
2018-02-03T10:10:31.327Z,97445
2018-02-03T10:12:59.023Z,97454
2018-02-03T10:15:26.608Z,97448
2018-02-03T10:17:54.174Z,97445
2018-02-03T10:20:21.755Z,97443
2018-02-03T10:22:49.497Z,97445
2018-02-03T10:25:17.226Z,97439
2018-02-03T10:27:44.808Z,97431
2018-02-03T10:30:12.520Z,97430
2018-02-03T10:32:40.134Z,97438
2018-02-03T10:35:07.698Z,97429
2018-02-03T10:37:36.046Z,97446
2018-02-03T10:40:03.777Z,97427
2018-02-03T10:42:31.562Z,97433
2018-02-03T10:44:59.944Z,97430
2018-02-03T10:47:28.311Z,97424
2018-02-03T10:49:55.877Z,97421
2018-02-03T10:52:24.205Z,97429
2018-02-03T10:54:51.811Z,97428
2018-02-03T10:57:19.395Z,97419
2018-02-03T10:59:47.435Z,97418
2018-02-03T11:02:15.002Z,97420
2018-02-03T11:04:42.572Z,97417
2018-02-03T11:07:10.167Z,97411
2018-02-03T11:09:38.462Z,97414
2018-02-03T11:12:06.069Z,97406
2018-02-03T11:14:33.706Z,97410
2018-02-03T11:17:02.044Z,97406
2018-02-03T11:19:29.618Z,97410
2018-02-03T11:21:57.204Z,97408
2018-02-03T11:24:24.780Z,97408
2018-02-03T11:26:52.595Z,97405
2018-02-03T11:29:20.228Z,97397
2018-02-03T11:31:48.553Z,97397
2018-02-03T11:34:16.157Z,97396
2018-02-03T11:36:43.810Z,97392
2018-02-03T11:39:13.760Z,97393
2018-02-03T11:41:42.990Z,97395
2018-02-03T11:44:13.807Z,97388
2018-02-03T11:46:42.386Z,97398
2018-02-03T11:49:11.071Z,97387
2018-02-03T11:51:39.308Z,97395
2018-02-03T11:54:06.908Z,97390
2018-02-03T11:56:34.515Z,97397
2018-02-03T11:59:02.866Z,97389
2018-02-03T12:01:30.447Z,97391
2018-02-03T12:03:58.118Z,97386
2018-02-03T12:06:25.824Z,97396
2018-02-03T12:08:53.403Z,97390
2018-02-03T12:11:20.991Z,97386
2018-02-03T12:13:48.745Z,97392
2018-02-03T12:16:16.900Z,97388
2018-02-03T12:18:44.467Z,97392
2018-02-03T12:21:12.087Z,97390
2018-02-03T12:23:39.713Z,97408
2018-02-03T12:26:08.079Z,97391
2018-02-03T12:28:36.474Z,97392
2018-02-03T12:31:04.079Z,97393
2018-02-03T12:33:31.690Z,97389
2018-02-03T12:35:59.488Z,97383
2018-02-03T12:38:27.856Z,97387
2018-02-03T12:40:55.439Z,97387
2018-02-03T12:43:23.078Z,97380
2018-02-03T12:45:50.666Z,97387
2018-02-03T12:48:18.235Z,97379
2018-02-03T12:50:46.071Z,97388
2018-02-03T12:53:13.654Z,97381
2018-02-03T12:55:41.252Z,97372
2018-02-03T12:58:08.900Z,97388
2018-02-03T13:00:36.454Z,97377
2018-02-03T13:03:04.814Z,97383
2018-02-03T13:05:32.444Z,97375
2018-02-03T13:08:00.000Z,97380
2018-02-03T13:10:27.561Z,97377
2018-02-03T13:12:55.178Z,97387
2018-02-03T13:15:22.798Z,97383
2018-02-03T13:17:50.415Z,97397
2018-02-03T13:20:18.640Z,97391
2018-02-03T13:22:47.038Z,97381
2018-02-03T13:25:14.701Z,97387
2018-02-03T13:27:43.031Z,97379
2018-02-03T13:30:10.653Z,97375
2018-02-03T13:32:39.037Z,97373
2018-02-03T13:35:06.636Z,97367
2018-02-03T13:37:35.094Z,97381
2018-02-03T13:40:02.653Z,97381
2018-02-03T13:42:30.339Z,97376
2018-02-03T13:44:58.680Z,97377
2018-02-03T13:47:26.399Z,97380
2018-02-03T13:49:54.097Z,97380
2018-02-03T13:52:22.534Z,97374
2018-02-03T13:54:50.116Z,97376
2018-02-03T13:57:18.451Z,97371
2018-02-03T13:59:46.390Z,97381
2018-02-03T14:02:14.718Z,97368
2018-02-03T14:04:42.297Z,97377
2018-02-03T14:07:09.926Z,97369
2018-02-03T14:09:37.548Z,97370
2018-02-03T14:12:05.875Z,97374
2018-02-03T14:14:33.459Z,97375
2018-02-03T14:17:01.168Z,97366
2018-02-03T14:19:28.781Z,97376
2018-02-03T14:21:56.386Z,97379
2018-02-03T14:27:26.872Z,97387
2018-02-03T14:29:54.500Z,97370
2018-02-03T14:32:22.852Z,97378
2018-02-03T14:34:50.483Z,97378
2018-02-03T14:37:18.141Z,97367
2018-02-03T14:39:46.903Z,97379
2018-02-03T14:42:14.558Z,97377
2018-02-03T14:44:43.001Z,97382
2018-02-03T14:47:10.615Z,97374
2018-02-03T14:49:38.228Z,97388
2018-02-03T14:52:06.585Z,97380
2018-02-03T14:54:35.027Z,97386
2018-02-03T14:57:03.373Z,97384
2018-02-03T14:59:31.063Z,97388
2018-02-03T15:01:58.665Z,97392
2018-02-03T15:04:26.247Z,97388
2018-02-03T15:06:53.843Z,97388
2018-02-03T15:09:22.221Z,97382
2018-02-03T15:11:49.923Z,97385
2018-02-03T15:14:18.305Z,97394
2018-02-03T15:16:46.660Z,97391
2018-02-03T15:19:14.308Z,97403
2018-02-03T15:21:42.719Z,97394
2018-02-03T15:24:10.406Z,97409
2018-02-03T15:26:38.031Z,97399
2018-02-03T15:29:05.686Z,97410
2018-02-03T15:31:33.300Z,97422
2018-02-03T15:34:00.904Z,97429
2018-02-03T15:36:29.242Z,97417
2018-02-03T15:38:56.824Z,97422
2018-02-03T15:41:24.460Z,97432
2018-02-03T15:43:52.074Z,97427
2018-02-03T15:46:19.678Z,97421
2018-02-03T15:48:48.576Z,97426
2018-02-03T15:51:17.581Z,97415
2018-02-03T15:53:45.169Z,97428
2018-02-03T15:56:13.548Z,97425
2018-02-03T15:58:41.889Z,97426
2018-02-03T16:01:09.625Z,97430
2018-02-03T16:03:37.453Z,97421
2018-02-03T16:06:05.022Z,97422
2018-02-03T16:08:33.378Z,97432
2018-02-03T16:11:01.801Z,97430
2018-02-03T16:13:29.491Z,97434
2018-02-03T16:15:57.111Z,97427
2018-02-03T16:18:25.459Z,97426
2018-02-03T16:20:53.044Z,97446
2018-02-03T16:23:21.437Z,97435
2018-02-03T16:25:49.896Z,97436
2018-02-03T16:28:18.700Z,97444
2018-02-03T16:30:47.547Z,97437
2018-02-03T16:33:15.177Z,97435
2018-02-03T16:35:42.929Z,97441
2018-02-03T16:38:10.546Z,97437
2018-02-03T16:40:38.185Z,97452
2018-02-03T16:43:05.803Z,97444
2018-02-03T16:45:33.408Z,97447
2018-02-03T16:48:01.052Z,97456
2018-02-03T16:50:28.689Z,97462
2018-02-03T16:52:57.029Z,97462
2018-02-03T16:55:24.608Z,97457
2018-02-03T16:57:53.002Z,97462
2018-02-03T17:00:21.475Z,97451
2018-02-03T17:02:49.046Z,97469
2018-02-03T17:05:17.600Z,97461
2018-02-03T17:07:45.173Z,97462
2018-02-03T17:10:12.800Z,97470
2018-02-03T17:12:40.420Z,97468
2018-02-03T17:15:08.065Z,97473
2018-02-03T17:17:35.633Z,97479
2018-02-03T17:20:03.796Z,97476
2018-02-03T17:22:31.392Z,97469
2018-02-03T17:24:58.975Z,97482
2018-02-03T17:27:26.680Z,97482
2018-02-03T17:29:54.268Z,97490
2018-02-03T17:32:22.674Z,97496
2018-02-03T17:34:50.272Z,97491
2018-02-03T17:37:24.859Z,97494
2018-02-03T17:39:52.464Z,97499
2018-02-03T17:42:20.093Z,97488
2018-02-03T17:44:48.885Z,97490
2018-02-03T17:47:16.608Z,97495
2018-02-03T17:49:45.013Z,97495
2018-02-03T17:52:12.589Z,97500
2018-02-03T17:54:40.171Z,97502
2018-02-03T17:57:13.536Z,97500
2018-02-03T17:59:41.199Z,97509
2018-02-03T18:02:08.789Z,97509
2018-02-03T18:04:36.372Z,97498
2018-02-03T18:07:05.969Z,97503
2018-02-03T18:09:33.554Z,97504
2018-02-03T18:12:01.138Z,97512
2018-02-03T18:14:29.522Z,97509
2018-02-03T18:16:57.120Z,97518
2018-02-03T18:19:24.722Z,97503
2018-02-03T18:21:53.133Z,97512
2018-02-03T18:24:20.800Z,97518
2018-02-03T18:26:48.507Z,97520
2018-02-03T18:29:16.887Z,97523
2018-02-03T18:31:44.503Z,97522
2018-02-03T18:34:12.101Z,97522
2018-02-03T18:36:39.737Z,97518
2018-02-03T18:39:07.478Z,97525
2018-02-03T18:41:35.135Z,97512
2018-02-03T18:44:04.495Z,97510
2018-02-03T18:46:32.413Z,97512
2018-02-03T18:49:00.180Z,97512
2018-02-03T18:51:27.768Z,97511
2018-02-03T18:53:55.369Z,97515
2018-02-03T18:56:23.000Z,97521
2018-02-03T18:58:50.604Z,97522
2018-02-03T19:01:18.977Z,97522
2018-02-03T19:03:46.932Z,97521
2018-02-03T19:06:14.580Z,97525
2018-02-03T19:08:42.170Z,97529
2018-02-03T19:11:09.773Z,97532
2018-02-03T19:13:37.404Z,97549
2018-02-03T19:16:05.796Z,97541
2018-02-03T19:18:34.147Z,97550
2018-02-03T19:21:02.559Z,97552
2018-02-03T19:23:30.148Z,97550
2018-02-03T19:25:57.733Z,97557
2018-02-03T19:28:25.550Z,97562
2018-02-03T19:30:55.198Z,97561
2018-02-03T19:33:22.801Z,97565
2018-02-03T19:35:51.139Z,97573
2018-02-03T19:38:18.775Z,97568
2018-02-03T19:40:46.834Z,97580
2018-02-03T19:43:14.448Z,97570
2018-02-03T19:45:42.070Z,97567
2018-02-03T19:48:09.822Z,97565
2018-02-03T19:50:38.151Z,97575
2018-02-03T19:53:05.948Z,97582
2018-02-03T19:55:34.443Z,97581
2018-02-03T19:58:03.015Z,97579
2018-02-03T20:00:30.851Z,97587
2018-02-03T20:02:58.780Z,97583
2018-02-03T20:05:26.528Z,97583
2018-02-03T20:07:54.396Z,97583
2018-02-03T20:10:22.105Z,97587
2018-02-03T20:12:51.053Z,97588
2018-02-03T20:15:18.790Z,97587
2018-02-03T20:17:47.100Z,97583
2018-02-03T20:20:14.886Z,97593
2018-02-03T20:22:42.567Z,97602
2018-02-03T20:25:10.402Z,97597
2018-02-03T20:27:38.259Z,97596
2018-02-03T20:30:06.077Z,97593
2018-02-03T20:32:33.902Z,97600
2018-02-03T20:35:01.761Z,97613
2018-02-03T20:37:29.525Z,97601
2018-02-03T20:39:57.351Z,97611
2018-02-03T20:42:25.032Z,97605
2018-02-03T20:44:53.429Z,97609
2018-02-03T20:47:22.024Z,97618
2018-02-03T20:49:49.670Z,97618
2018-02-03T20:52:18.361Z,97621
2018-02-03T20:54:47.621Z,97628
2018-02-03T20:57:15.384Z,97615
2018-02-03T20:59:43.054Z,97619
2018-02-03T21:02:10.769Z,97631
2018-02-03T21:04:38.636Z,97627
2018-02-03T21:07:06.289Z,97625
2018-02-03T21:09:34.666Z,97635
2018-02-03T21:12:03.770Z,97639
2018-02-03T21:14:31.642Z,97637
2018-02-03T21:16:59.609Z,97642
2018-02-03T21:19:27.358Z,97636
2018-02-03T21:21:55.388Z,97636
2018-02-03T21:24:23.320Z,97648
2018-02-03T21:26:51.271Z,97637
2018-02-03T21:29:19.155Z,97664
2018-02-03T21:31:47.461Z,97655
2018-02-03T21:34:15.308Z,97653
2018-02-03T21:36:43.206Z,97644
2018-02-03T21:39:11.056Z,97650
2018-02-03T21:41:39.013Z,97653
2018-02-03T21:44:06.878Z,97658
2018-02-03T21:46:34.676Z,97650
2018-02-03T21:49:02.408Z,97647
2018-02-03T21:51:30.992Z,97654
2018-02-03T21:53:58.806Z,97658
2018-02-03T21:56:26.479Z,97656
2018-02-03T21:58:54.864Z,97655
2018-02-03T22:01:22.441Z,97657
2018-02-03T22:03:50.862Z,97666
2018-02-03T22:06:18.424Z,97677
2018-02-03T22:08:46.098Z,97672
2018-02-03T22:11:13.754Z,97672
2018-02-03T22:13:41.462Z,97674
2018-02-03T22:16:09.195Z,97672
2018-02-03T22:18:36.771Z,97682
2018-02-03T22:21:04.362Z,97687
2018-02-03T22:23:32.704Z,97685
2018-02-03T22:26:00.283Z,97685
2018-02-03T22:28:27.860Z,97684
2018-02-03T22:30:56.219Z,97686
2018-02-03T22:33:23.801Z,97687
2018-02-03T22:35:52.190Z,97683
2018-02-03T22:38:19.815Z,97686
2018-02-03T22:40:47.598Z,97689
2018-02-03T22:43:15.169Z,97702
2018-02-03T22:45:43.597Z,97688
2018-02-03T22:48:11.201Z,97697
2018-02-03T22:50:40.305Z,97697
2018-02-03T22:53:07.884Z,97692
2018-02-03T22:55:36.259Z,97693
2018-02-03T22:58:03.865Z,97689
2018-02-03T23:00:35.652Z,97701
2018-02-03T23:02:59.095Z,97702
2018-02-03T23:05:26.691Z,97706
2018-02-03T23:07:54.275Z,97702
2018-02-03T23:10:21.876Z,97718
2018-02-03T23:12:49.497Z,97714
2018-02-03T23:15:17.978Z,97715
2018-02-03T23:17:45.557Z,97720
2018-02-03T23:20:13.148Z,97725
2018-02-03T23:22:40.758Z,97722
2018-02-03T23:25:09.129Z,97719
2018-02-03T23:27:37.514Z,97715
2018-02-03T23:30:05.881Z,97726
2018-02-03T23:32:33.475Z,97726
2018-02-03T23:35:01.091Z,97722
2018-02-03T23:37:29.445Z,97715
2018-02-03T23:39:57.017Z,97722
2018-02-03T23:42:24.650Z,97730
2018-02-03T23:44:52.994Z,97733
2018-02-03T23:47:21.341Z,97730
2018-02-03T23:49:48.932Z,97731
2018-02-03T23:52:17.609Z,97733
2018-02-03T23:54:45.186Z,97730
2018-02-03T23:57:13.546Z,97730
2018-02-03T23:59:41.118Z,97749
